Time;durP1;ratioP1;P1;durP2;ratioP2;P2;SDS_P1;SDS_P2;PMS_P1;PMS_P2;Temp;Humidity;BMP_temperature;BMP_pressure;BME280_temperature;BME280_humidity;BME280_pressure;Samples;Min_cycle;Max_cycle;Signal;HPM_P1;HPM_P2
2023/04/26 00:00:32;;;;;;;1.00;0.60;;;6.00;99.90;;;;;;4400270;32;20069;-70
2023/04/26 00:02:59;;;;;;;0.30;0.30;;;5.90;99.90;;;;;;4401356;32;20090;-70
2023/04/26 00:05:25;;;;;;;2.37;0.60;;;5.90;99.90;;;;;;4406331;32;20443;-71
2023/04/26 00:07:50;;;;;;;6.18;0.93;;;5.90;99.90;;;;;;4401868;32;20105;-72
2023/04/26 00:10:15;;;;;;;0.45;0.45;;;5.80;99.90;;;;;;4399884;32;20129;-73
2023/04/26 00:12:41;;;;;;;0.40;0.40;;;5.90;99.90;;;;;;4401382;32;20061;-71
2023/04/26 00:15:08;;;;;;;4.82;0.85;;;5.80;99.90;;;;;;4399060;32;20109;-69
2023/04/26 00:17:34;;;;;;;0.40;0.40;;;5.80;99.90;;;;;;4396446;32;20110;-70
2023/04/26 00:20:00;;;;;;;0.77;0.77;;;5.80;99.90;;;;;;4398841;32;20455;-69
2023/04/26 00:22:25;;;;;;;0.98;0.77;;;5.80;99.90;;;;;;4401660;32;20569;-70
2023/04/26 00:24:51;;;;;;;0.30;0.30;;;5.70;99.90;;;;;;4400532;32;20086;-70
2023/04/26 00:27:16;;;;;;;0.40;0.40;;;5.70;99.90;;;;;;4398957;32;20074;-73
2023/04/26 00:29:42;;;;;;;0.50;0.50;;;5.80;99.90;;;;;;4402849;32;20074;-69
2023/04/26 00:32:07;;;;;;;0.40;0.40;;;5.80;99.90;;;;;;4402561;32;20074;-71
2023/04/26 00:34:35;;;;;;;0.30;0.30;;;5.80;99.90;;;;;;4403798;32;20546;-71
2023/04/26 00:37:02;;;;;;;0.20;0.20;;;5.80;99.90;;;;;;4400263;32;20098;-69
2023/04/26 00:39:28;;;;;;;11.88;0.98;;;5.80;99.90;;;;;;4395916;32;20074;-71
2023/04/26 00:41:54;;;;;;;0.40;0.40;;;5.80;99.90;;;;;;4399442;32;20160;-70
2023/04/26 00:44:20;;;;;;;0.30;0.30;;;5.60;99.90;;;;;;4397694;32;20129;-69
2023/04/26 00:46:45;;;;;;;0.45;0.45;;;5.60;99.90;;;;;;4401707;32;20088;-70
2023/04/26 00:49:15;;;;;;;0.30;0.30;;;5.60;99.90;;;;;;4399426;32;20239;-69
2023/04/26 00:51:42;;;;;;;1.73;1.20;;;5.60;99.90;;;;;;4401132;32;20152;-71
2023/04/26 00:54:08;;;;;;;0.30;0.30;;;5.60;99.90;;;;;;4399921;32;20420;-71
2023/04/26 00:56:35;;;;;;;0.30;0.30;;;5.60;99.90;;;;;;4399239;32;20531;-70
2023/04/26 00:59:02;;;;;;;0.30;0.30;;;5.60;99.90;;;;;;4397015;32;20110;-69
2023/04/26 01:01:28;;;;;;;0.77;0.70;;;5.60;99.90;;;;;;4398674;32;20522;-69
2023/04/26 01:03:54;;;;;;;0.47;0.47;;;5.60;99.90;;;;;;4399023;32;20073;-71
2023/04/26 01:06:21;;;;;;;0.30;0.30;;;5.60;99.90;;;;;;4398955;32;20605;-70
2023/04/26 01:08:52;;;;;;;0.30;0.30;;;5.50;99.90;;;;;;4398335;32;20073;-70
2023/04/26 01:11:21;;;;;;;1.27;1.17;;;5.50;99.90;;;;;;4397148;32;20097;-70
2023/04/26 01:13:47;;;;;;;0.65;0.65;;;5.50;99.90;;;;;;4399359;32;20640;-70
2023/04/26 01:16:13;;;;;;;0.57;0.57;;;5.40;99.90;;;;;;4400558;32;20095;-71
2023/04/26 01:18:40;;;;;;;0.30;0.30;;;5.40;99.90;;;;;;4397370;32;20118;-70
2023/04/26 01:21:05;;;;;;;2.20;0.80;;;5.40;99.90;;;;;;4400750;32;20058;-70
2023/04/26 01:23:31;;;;;;;0.30;0.30;;;5.40;99.90;;;;;;4401003;32;20088;-72
2023/04/26 01:25:56;;;;;;;0.40;0.40;;;5.40;99.90;;;;;;4399251;32;20065;-71
2023/04/26 01:28:22;;;;;;;0.45;0.45;;;5.40;99.90;;;;;;4398379;32;20487;-69
2023/04/26 01:30:48;;;;;;;0.40;0.40;;;5.30;99.90;;;;;;4407194;32;20123;-69
2023/04/26 01:33:14;;;;;;;0.90;0.90;;;5.40;99.90;;;;;;4409148;32;20073;-71
2023/04/26 01:35:40;;;;;;;0.60;0.60;;;5.30;99.90;;;;;;4406671;32;20073;-69
2023/04/26 01:38:05;;;;;;;0.50;0.50;;;5.40;99.90;;;;;;4408786;32;20078;-70
2023/04/26 01:40:31;;;;;;;0.82;0.82;;;5.30;99.90;;;;;;4407411;32;20058;-71
2023/04/26 01:42:56;;;;;;;0.50;0.50;;;5.20;99.90;;;;;;4409145;32;20501;-69
2023/04/26 01:45:22;;;;;;;14.50;1.50;;;5.20;99.90;;;;;;4407625;32;20082;-69
2023/04/26 01:47:48;;;;;;;0.50;0.50;;;5.20;99.90;;;;;;4406770;32;20089;-70
2023/04/26 01:50:14;;;;;;;0.85;0.85;;;5.20;99.90;;;;;;4407057;32;20062;-70
2023/04/26 01:52:40;;;;;;;0.35;0.35;;;5.20;99.90;;;;;;4407997;32;20192;-70
2023/04/26 01:55:06;;;;;;;0.30;0.30;;;5.20;99.90;;;;;;4408903;32;20085;-70
2023/04/26 01:57:31;;;;;;;0.77;0.77;;;5.20;99.90;;;;;;4407298;32;20560;-69
2023/04/26 01:59:58;;;;;;;0.50;0.50;;;5.10;99.90;;;;;;4406782;32;20102;-70
2023/04/26 02:02:23;;;;;;;0.70;0.70;;;5.10;99.90;;;;;;4408178;32;20544;-69
2023/04/26 02:04:49;;;;;;;1.15;1.05;;;5.10;99.90;;;;;;4409812;32;20124;-70
2023/04/26 02:07:16;;;;;;;6.12;1.33;;;5.10;99.90;;;;;;4408743;32;20097;-69
2023/04/26 02:09:41;;;;;;;0.40;0.40;;;5.10;99.90;;;;;;4409807;32;20383;-70
2023/04/26 02:12:07;;;;;;;0.65;0.65;;;5.20;99.90;;;;;;4408389;32;20404;-70
2023/04/26 02:14:32;;;;;;;0.73;0.73;;;5.10;99.90;;;;;;4409582;32;20078;-70
2023/04/26 02:16:58;;;;;;;0.62;0.62;;;4.90;99.90;;;;;;4408461;32;20568;-71
2023/04/26 02:19:23;;;;;;;12.10;2.10;;;4.90;99.90;;;;;;4408679;32;20078;-71
2023/04/26 02:21:51;;;;;;;0.40;0.40;;;5.00;99.90;;;;;;4406201;32;20073;-71
2023/04/26 02:24:17;;;;;;;0.30;0.30;;;5.00;99.90;;;;;;4407043;32;20085;-69
2023/04/26 02:26:42;;;;;;;0.43;0.43;;;4.90;99.90;;;;;;4409089;32;20431;-70
2023/04/26 02:29:08;;;;;;;4.07;0.55;;;4.90;99.90;;;;;;4405234;32;20074;-70
2023/04/26 02:31:33;;;;;;;0.40;0.40;;;4.90;99.90;;;;;;4397937;32;20098;-69
2023/04/26 02:33:59;;;;;;;8.88;1.30;;;4.90;99.90;;;;;;4394645;32;20545;-70
2023/04/26 02:36:24;;;;;;;0.35;0.35;;;4.90;99.90;;;;;;4398074;32;20094;-70
2023/04/26 02:38:53;;;;;;;0.40;0.40;;;4.80;99.90;;;;;;4396188;32;20062;-70
2023/04/26 02:41:18;;;;;;;0.40;0.40;;;4.80;99.90;;;;;;4398204;32;20126;-70
2023/04/26 02:43:44;;;;;;;17.17;1.23;;;4.70;99.90;;;;;;4400789;32;20491;-70
2023/04/26 02:46:09;;;;;;;0.30;0.30;;;4.70;99.90;;;;;;4398756;32;20107;-69
2023/04/26 02:48:35;;;;;;;0.30;0.30;;;4.70;99.90;;;;;;4399267;32;20121;-70
2023/04/26 02:51:01;;;;;;;0.50;0.50;;;4.70;99.90;;;;;;4401156;32;20078;-70
2023/04/26 02:53:27;;;;;;;0.30;0.30;;;4.70;99.90;;;;;;4399648;32;20167;-69
2023/04/26 02:55:54;;;;;;;0.37;0.37;;;4.70;99.90;;;;;;4399979;32;20091;-70
2023/04/26 02:58:20;;;;;;;0.75;0.75;;;4.70;99.90;;;;;;4398649;32;20062;-70
2023/04/26 03:00:47;;;;;;;0.30;0.30;;;4.70;99.90;;;;;;4400114;32;20074;-72
2023/04/26 03:03:13;;;;;;;0.30;0.30;;;4.60;99.90;;;;;;4399603;32;20411;-69
2023/04/26 03:05:40;;;;;;;0.30;0.30;;;4.60;99.90;;;;;;4400520;32;20448;-71
2023/04/26 03:08:06;;;;;;;0.35;0.35;;;4.50;99.90;;;;;;4403003;32;20065;-70
2023/04/26 03:10:32;;;;;;;0.52;0.52;;;4.60;99.90;;;;;;4403729;32;20526;-69
2023/04/26 03:12:57;;;;;;;0.40;0.40;;;4.60;99.90;;;;;;4405160;32;20069;-70
2023/04/26 03:15:23;;;;;;;0.30;0.30;;;4.50;99.90;;;;;;4406911;32;20105;-69
2023/04/26 03:17:48;;;;;;;0.30;0.30;;;4.60;99.90;;;;;;4405297;32;20412;-71
2023/04/26 03:20:14;;;;;;;0.30;0.30;;;4.50;99.90;;;;;;4404725;32;20137;-70
2023/04/26 03:22:39;;;;;;;1.65;1.10;;;4.50;99.90;;;;;;4403241;32;20151;-71
2023/04/26 03:25:06;;;;;;;0.30;0.30;;;4.50;99.90;;;;;;4404837;32;20196;-69
2023/04/26 03:27:32;;;;;;;0.30;0.30;;;4.50;99.90;;;;;;4406116;32;20399;-69
2023/04/26 03:29:57;;;;;;;4.80;1.37;;;4.40;99.90;;;;;;4410996;32;20093;-70
2023/04/26 03:32:23;;;;;;;0.40;0.40;;;4.40;99.90;;;;;;4413640;32;20100;-70
2023/04/26 03:34:48;;;;;;;0.40;0.40;;;4.30;99.90;;;;;;4413033;32;20114;-69
2023/04/26 03:37:14;;;;;;;0.30;0.30;;;4.40;99.90;;;;;;4412407;32;20431;-71
2023/04/26 03:39:40;;;;;;;0.30;0.30;;;4.40;99.90;;;;;;4412738;32;20136;-70
2023/04/26 03:42:07;;;;;;;1.45;1.33;;;4.50;99.90;;;;;;4413309;32;20057;-71
2023/04/26 03:44:32;;;;;;;1.45;0.82;;;4.40;99.90;;;;;;4413233;32;20428;-71
2023/04/26 03:46:58;;;;;;;0.70;0.70;;;4.40;99.90;;;;;;4412694;32;20062;-70
2023/04/26 03:49:24;;;;;;;0.30;0.30;;;4.40;99.90;;;;;;4412426;32;20129;-70
2023/04/26 03:51:49;;;;;;;49.58;1.00;;;4.50;99.90;;;;;;4412052;32;20093;-69
2023/04/26 03:54:15;;;;;;;0.62;0.62;;;4.40;99.90;;;;;;4412394;32;20162;-71
2023/04/26 03:56:40;;;;;;;0.28;0.28;;;4.40;99.90;;;;;;4411256;32;20098;-70
2023/04/26 03:59:08;;;;;;;0.82;0.82;;;4.40;99.90;;;;;;4412770;32;20073;-70
2023/04/26 04:01:33;;;;;;;1.08;0.95;;;4.40;99.90;;;;;;4413592;32;20077;-70
2023/04/26 04:03:59;;;;;;;0.40;0.40;;;4.40;99.90;;;;;;4411547;32;20070;-72
2023/04/26 04:06:24;;;;;;;0.40;0.40;;;4.50;99.90;;;;;;4412560;32;20136;-70
2023/04/26 04:08:49;;;;;;;4.22;0.82;;;4.40;99.90;;;;;;4412263;32;20100;-71
2023/04/26 04:11:15;;;;;;;2.03;1.10;;;4.40;99.90;;;;;;4412786;32;20093;-69
2023/04/26 04:13:41;;;;;;;0.55;0.55;;;4.40;99.90;;;;;;4414607;32;20529;-70
2023/04/26 04:16:09;;;;;;;0.40;0.40;;;4.40;99.90;;;;;;4411995;32;20121;-69
2023/04/26 04:18:34;;;;;;;0.40;0.40;;;4.30;99.90;;;;;;4412417;32;20521;-71
2023/04/26 04:21:00;;;;;;;0.73;0.73;;;4.40;99.90;;;;;;4405456;32;20077;-70
2023/04/26 04:23:26;;;;;;;0.70;0.70;;;4.40;99.90;;;;;;4406301;32;20085;-71
2023/04/26 04:25:53;;;;;;;0.60;0.60;;;4.30;99.90;;;;;;4409282;32;20090;-70
2023/04/26 04:28:18;;;;;;;0.37;0.37;;;4.40;99.90;;;;;;4409160;32;20070;-70
2023/04/26 04:30:45;;;;;;;0.50;0.50;;;4.50;99.90;;;;;;4401382;32;20544;-69
2023/04/26 04:33:11;;;;;;;0.55;0.55;;;4.40;99.90;;;;;;4403756;32;20065;-71
2023/04/26 04:35:36;;;;;;;0.45;0.45;;;4.40;99.90;;;;;;4402108;32;20233;-70
2023/04/26 04:38:02;;;;;;;0.30;0.30;;;4.50;99.90;;;;;;4404121;32;20149;-70
2023/04/26 04:40:27;;;;;;;0.50;0.50;;;4.50;99.90;;;;;;4399552;32;20371;-70
2023/04/26 04:42:54;;;;;;;0.30;0.30;;;4.50;99.90;;;;;;4400054;32;20123;-71
2023/04/26 04:45:20;;;;;;;0.52;0.52;;;4.60;99.90;;;;;;4401002;32;20065;-72
2023/04/26 04:47:46;;;;;;;0.30;0.30;;;4.60;99.90;;;;;;4401626;32;20069;-70
2023/04/26 04:50:12;;;;;;;0.55;0.55;;;4.60;99.90;;;;;;4403416;32;20090;-71
2023/04/26 04:52:37;;;;;;;0.57;0.57;;;4.60;99.90;;;;;;4401321;32;20090;-70
2023/04/26 04:55:03;;;;;;;0.75;0.75;;;4.60;99.90;;;;;;4399477;32;20116;-72
2023/04/26 04:57:30;;;;;;;3.92;1.83;;;4.60;99.90;;;;;;4395336;32;20162;-72
2023/04/26 04:59:55;;;;;;;1.05;0.93;;;4.70;99.90;;;;;;4397419;32;20101;-70
2023/04/26 05:02:21;;;;;;;1.75;0.98;;;4.70;99.90;;;;;;4392067;32;20167;-73
2023/04/26 05:04:48;;;;;;;0.40;0.40;;;4.70;99.90;;;;;;4395518;32;20092;-72
2023/04/26 05:07:14;;;;;;;0.30;0.30;;;4.80;99.90;;;;;;4398136;32;20066;-71
2023/04/26 05:09:41;;;;;;;0.30;0.30;;;4.90;99.90;;;;;;4396997;32;20124;-71
2023/04/26 05:12:06;;;;;;;10.32;1.33;;;4.90;99.90;;;;;;4392902;32;20106;-68
2023/04/26 05:14:33;;;;;;;0.32;0.32;;;5.00;99.90;;;;;;4397160;32;20105;-70
2023/04/26 05:16:58;;;;;;;0.32;0.32;;;4.90;99.90;;;;;;4385078;32;20719;-69
2023/04/26 05:19:24;;;;;;;0.30;0.30;;;5.00;99.90;;;;;;4388474;32;20085;-70
2023/04/26 05:21:51;;;;;;;0.50;0.50;;;5.00;99.90;;;;;;4393226;32;20086;-70
2023/04/26 05:24:16;;;;;;;0.40;0.40;;;5.00;99.90;;;;;;4392918;32;20090;-71
2023/04/26 05:26:42;;;;;;;1.05;0.95;;;5.10;99.90;;;;;;4381873;32;20129;-72
2023/04/26 05:29:07;;;;;;;2.83;1.05;;;5.10;99.90;;;;;;4394824;32;20110;-71
2023/04/26 05:31:33;;;;;;;1.30;0.93;;;5.20;99.90;;;;;;4383384;32;20098;-71
2023/04/26 05:34:00;;;;;;;1.00;0.77;;;5.20;99.90;;;;;;4401584;32;20093;-71
2023/04/26 05:36:27;;;;;;;0.30;0.30;;;5.10;99.90;;;;;;4400083;32;20090;-75
2023/04/26 05:38:55;;;;;;;0.88;0.88;;;5.10;99.90;;;;;;4394206;32;20120;-74
2023/04/26 05:41:21;;;;;;;1.10;0.70;;;5.10;99.90;;;;;;4397647;32;20153;-73
2023/04/26 05:43:46;;;;;;;0.40;0.40;;;5.10;99.90;;;;;;4396967;32;20252;-70
2023/04/26 05:46:12;;;;;;;0.40;0.40;;;5.20;99.90;;;;;;4396678;32;20109;-71
2023/04/26 05:48:38;;;;;;;0.40;0.40;;;5.40;99.90;;;;;;4401331;32;20396;-70
2023/04/26 05:51:03;;;;;;;0.20;0.20;;;5.50;99.90;;;;;;4398347;32;20487;-70
2023/04/26 05:53:29;;;;;;;2.17;1.08;;;5.60;99.90;;;;;;4394864;32;20153;-72
2023/04/26 05:55:54;;;;;;;2.53;1.17;;;5.50;99.90;;;;;;4387832;32;20097;-73
2023/04/26 05:58:20;;;;;;;2.65;1.37;;;5.40;99.90;;;;;;4381818;32;20892;-74
2023/04/26 06:00:46;;;;;;;0.32;0.32;;;5.40;99.90;;;;;;4390282;32;20085;-71
2023/04/26 06:03:12;;;;;;;0.77;0.77;;;5.50;99.90;;;;;;4384678;32;20553;-72
2023/04/26 06:05:40;;;;;;;0.35;0.35;;;5.50;99.90;;;;;;4386537;32;20093;-71
2023/04/26 06:08:05;;;;;;;5.72;1.95;;;5.50;99.90;;;;;;4387982;32;20158;-73
2023/04/26 06:10:31;;;;;;;0.40;0.40;;;5.70;99.90;;;;;;4373788;32;20609;-72
2023/04/26 06:12:56;;;;;;;3.30;0.93;;;5.70;99.90;;;;;;4381734;32;20097;-73
2023/04/26 06:15:22;;;;;;;0.50;0.50;;;5.80;99.90;;;;;;4387223;32;20085;-73
2023/04/26 06:17:47;;;;;;;0.40;0.40;;;5.80;99.90;;;;;;4379510;32;21058;-74
2023/04/26 06:20:13;;;;;;;0.30;0.30;;;5.90;99.90;;;;;;4369076;32;21645;-73
2023/04/26 06:22:38;;;;;;;0.30;0.30;;;6.00;99.90;;;;;;4380638;32;20492;-70
2023/04/26 06:25:07;;;;;;;0.40;0.40;;;5.90;99.90;;;;;;4376691;32;20105;-72
2023/04/26 06:27:32;;;;;;;0.45;0.45;;;5.90;99.90;;;;;;4377275;32;20097;-74
2023/04/26 06:29:58;;;;;;;0.43;0.43;;;6.00;99.90;;;;;;4373466;32;20718;-72
2023/04/26 06:32:25;;;;;;;0.45;0.45;;;6.20;99.90;;;;;;4372722;32;21311;-73
2023/04/26 06:34:51;;;;;;;0.30;0.30;;;6.30;99.90;;;;;;4379373;32;20085;-73
2023/04/26 06:37:16;;;;;;;0.77;0.77;;;6.40;99.90;;;;;;4379763;32;20817;-71
2023/04/26 06:39:42;;;;;;;0.40;0.40;;;6.40;99.90;;;;;;4373885;32;20974;-73
2023/04/26 06:42:10;;;;;;;3.80;0.95;;;6.30;99.90;;;;;;4364937;32;20985;-73
2023/04/26 06:44:35;;;;;;;0.30;0.30;;;6.20;99.90;;;;;;4370009;32;20101;-73
2023/04/26 06:47:01;;;;;;;3.33;0.75;;;6.30;99.90;;;;;;4369929;32;20222;-71
2023/04/26 06:49:26;;;;;;;0.30;0.30;;;6.30;99.90;;;;;;4376109;32;20565;-73
2023/04/26 06:51:52;;;;;;;0.40;0.40;;;6.30;99.90;;;;;;4373781;32;20102;-72
2023/04/26 06:54:18;;;;;;;0.37;0.37;;;6.40;99.90;;;;;;4379280;32;20484;-72
2023/04/26 06:56:45;;;;;;;0.30;0.30;;;6.40;99.90;;;;;;4379643;32;20065;-73
2023/04/26 06:59:11;;;;;;;0.40;0.40;;;6.50;99.90;;;;;;4376783;32;20081;-73
2023/04/26 07:01:37;;;;;;;0.30;0.30;;;6.60;99.90;;;;;;4369725;32;20089;-73
2023/04/26 07:04:06;;;;;;;0.30;0.30;;;6.70;99.90;;;;;;4377879;32;20073;-71
2023/04/26 07:06:32;;;;;;;0.65;0.65;;;6.70;99.90;;;;;;4375816;32;20106;-74
2023/04/26 07:08:59;;;;;;;0.30;0.30;;;6.70;99.90;;;;;;4380294;32;20117;-74
2023/04/26 07:11:25;;;;;;;0.50;0.50;;;6.80;99.90;;;;;;4380476;32;21553;-75
2023/04/26 07:13:50;;;;;;;1.08;0.98;;;6.80;99.90;;;;;;4379989;32;20081;-75
2023/04/26 07:16:16;;;;;;;0.50;0.50;;;6.90;99.90;;;;;;4380358;32;20092;-74
2023/04/26 07:18:42;;;;;;;0.40;0.40;;;7.10;99.90;;;;;;4377963;32;20110;-74
2023/04/26 07:21:07;;;;;;;0.30;0.30;;;7.10;99.90;;;;;;4371020;32;20082;-74
2023/04/26 07:23:33;;;;;;;0.93;0.93;;;7.30;99.90;;;;;;4374715;32;20085;-74
2023/04/26 07:26:00;;;;;;;0.35;0.35;;;7.40;99.90;;;;;;4381725;32;20774;-74
2023/04/26 07:28:26;;;;;;;0.40;0.40;;;7.40;99.90;;;;;;4374959;32;20110;-74
2023/04/26 07:30:52;;;;;;;0.40;0.40;;;7.40;99.90;;;;;;4380182;32;21150;-74
2023/04/26 07:33:17;;;;;;;0.20;0.20;;;7.50;99.90;;;;;;4381649;32;20105;-76
2023/04/26 07:35:43;;;;;;;0.55;0.45;;;7.60;99.90;;;;;;4382487;32;20248;-76
2023/04/26 07:38:09;;;;;;;25.55;0.62;;;7.80;99.90;;;;;;4391313;32;20082;-76
2023/04/26 07:40:35;;;;;;;1.73;1.27;;;7.90;99.90;;;;;;4387739;32;20098;-75
2023/04/26 07:43:01;;;;;;;1.92;1.17;;;7.90;99.90;;;;;;4389662;32;20823;-75
2023/04/26 07:45:26;;;;;;;0.30;0.30;;;7.90;99.90;;;;;;4387039;32;20101;-75
2023/04/26 07:47:52;;;;;;;0.40;0.40;;;7.90;99.90;;;;;;4389420;32;20109;-74
2023/04/26 07:50:19;;;;;;;0.40;0.40;;;7.60;99.90;;;;;;4365429;32;20085;-76
2023/04/26 07:52:45;;;;;;;0.40;0.40;;;7.40;99.90;;;;;;4362870;32;20122;-76
2023/04/26 07:55:11;;;;;;;0.40;0.40;;;7.40;99.90;;;;;;4357964;32;20105;-75
2023/04/26 07:57:36;;;;;;;1.17;0.75;;;7.70;99.90;;;;;;4366044;32;20303;-73
2023/04/26 08:00:06;;;;;;;23.00;0.65;;;7.90;99.90;;;;;;4374560;32;21403;-74
2023/04/26 08:02:32;;;;;;;0.50;0.50;;;8.20;99.90;;;;;;4372848;32;20169;-73
2023/04/26 08:04:57;;;;;;;0.50;0.50;;;8.30;99.90;;;;;;4377905;32;20129;-77
2023/04/26 08:07:23;;;;;;;0.40;0.40;;;8.30;99.90;;;;;;4380587;32;20084;-73
2023/04/26 08:09:48;;;;;;;1.35;0.77;;;8.40;99.90;;;;;;4375757;32;21360;-74
2023/04/26 08:12:14;;;;;;;0.40;0.40;;;8.50;99.90;;;;;;4381534;32;21873;-74
2023/04/26 08:14:39;;;;;;;0.80;0.80;;;8.80;99.90;;;;;;4373183;32;20240;-74
2023/04/26 08:17:08;;;;;;;0.73;0.57;;;9.10;99.90;;;;;;4378700;32;20425;-74
2023/04/26 08:19:34;;;;;;;1.65;1.37;;;9.00;99.90;;;;;;4376081;32;20113;-74
2023/04/26 08:21:59;;;;;;;1.15;1.05;;;8.80;99.90;;;;;;4378795;32;20117;-74
2023/04/26 08:24:25;;;;;;;0.40;0.40;;;8.60;99.90;;;;;;4375258;32;20151;-75
2023/04/26 08:26:51;;;;;;;0.50;0.37;;;8.10;99.90;;;;;;4379593;32;20169;-76
2023/04/26 08:29:17;;;;;;;0.30;0.30;;;8.10;99.90;;;;;;4379264;32;20600;-74
2023/04/26 08:31:43;;;;;;;0.30;0.30;;;8.10;99.90;;;;;;4368221;32;20093;-74
2023/04/26 08:34:10;;;;;;;0.37;0.37;;;8.20;99.90;;;;;;4376147;32;20159;-74
2023/04/26 08:36:36;;;;;;;1.40;1.30;;;8.40;99.90;;;;;;4375885;32;20893;-75
2023/04/26 08:39:03;;;;;;;0.30;0.30;;;8.40;99.90;;;;;;4375180;32;20738;-75
2023/04/26 08:41:34;;;;;;;0.35;0.35;;;8.30;99.90;;;;;;4380935;32;20581;-74
2023/04/26 08:44:03;;;;;;;0.65;0.57;;;8.30;99.90;;;;;;4372471;32;20078;-74
2023/04/26 08:46:33;;;;;;;1.48;0.98;;;8.30;99.90;;;;;;4379799;32;20964;-74
2023/04/26 08:49:14;;;;;;;0.30;0.30;;;8.40;99.90;;;;;;4376319;32;20511;-74
2023/04/26 08:51:40;;;;;;;0.40;0.40;;;8.50;99.90;;;;;;4382147;32;20090;-75
2023/04/26 08:54:07;;;;;;;2.55;1.67;;;8.80;99.90;;;;;;4377208;32;20085;-75
2023/04/26 08:56:34;;;;;;;0.50;0.50;;;8.80;99.90;;;;;;4375862;32;20935;-75
2023/04/26 08:59:00;;;;;;;0.52;0.52;;;8.90;99.90;;;;;;4381179;32;20989;-76
2023/04/26 09:01:28;;;;;;;0.30;0.30;;;9.10;99.90;;;;;;4385436;32;20709;-75
2023/04/26 09:03:55;;;;;;;0.75;0.75;;;9.20;99.90;;;;;;4383624;32;20123;-74
2023/04/26 09:06:22;;;;;;;0.55;0.55;;;9.30;99.90;;;;;;4385134;32;20093;-76
2023/04/26 09:08:51;;;;;;;0.55;0.55;;;9.30;99.90;;;;;;4379325;32;21356;-75
2023/04/26 09:11:16;;;;;;;1.45;1.02;;;9.50;99.90;;;;;;4379325;32;20105;-76
2023/04/26 09:13:42;;;;;;;0.30;0.30;;;9.70;99.90;;;;;;4372844;32;20181;-76
2023/04/26 09:16:08;;;;;;;0.43;0.43;;;9.60;99.90;;;;;;4369799;32;20094;-75
2023/04/26 09:18:45;;;;;;;0.65;0.65;;;9.70;99.90;;;;;;4374538;32;20218;-75
2023/04/26 09:21:12;;;;;;;0.37;0.37;;;10.00;99.90;;;;;;4370524;32;20200;-74
2023/04/26 09:23:57;;;;;;;0.30;0.30;;;10.10;99.90;;;;;;4370578;32;20085;-75
2023/04/26 09:26:23;;;;;;;0.40;0.40;;;9.90;99.90;;;;;;4374408;32;20277;-78
2023/04/26 09:28:49;;;;;;;0.40;0.40;;;9.70;99.90;;;;;;4382828;32;20081;-75
2023/04/26 09:31:37;;;;;;;1.58;0.93;;;10.00;99.90;;;;;;4378476;32;20077;-74
2023/04/26 09:34:03;;;;;;;0.43;0.35;;;9.60;99.90;;;;;;4370988;32;20109;-76
2023/04/26 09:36:28;;;;;;;1.02;0.95;;;9.50;99.90;;;;;;4379212;32;21272;-75
2023/04/26 09:38:54;;;;;;;0.50;0.50;;;9.20;99.90;;;;;;4380731;32;20114;-75
2023/04/26 09:41:20;;;;;;;0.30;0.30;;;9.00;99.90;;;;;;4376569;32;20558;-75
2023/04/26 09:43:49;;;;;;;0.82;0.57;;;8.80;99.90;;;;;;4380183;32;20081;-74
2023/04/26 09:46:22;;;;;;;0.30;0.30;;;9.20;99.90;;;;;;4377365;32;20164;-76
2023/04/26 09:49:00;;;;;;;0.70;0.70;;;9.90;99.90;;;;;;4382712;32;20737;-74
2023/04/26 09:51:25;;;;;;;0.30;0.30;;;10.70;99.90;;;;;;4371760;32;20173;-76
2023/04/26 09:53:51;;;;;;;0.30;0.30;;;10.90;99.90;;;;;;4381256;32;20081;-75
2023/04/26 09:56:19;;;;;;;0.40;0.40;;;10.60;99.90;;;;;;4383800;32;20139;-75
2023/04/26 09:58:49;;;;;;;0.40;0.40;;;9.90;99.90;;;;;;4377380;32;20949;-75
2023/04/26 10:01:16;;;;;;;0.32;0.32;;;9.60;99.90;;;;;;4377256;32;20113;-75
2023/04/26 10:03:42;;;;;;;0.30;0.30;;;9.50;99.90;;;;;;4373519;32;20375;-77
2023/04/26 10:06:08;;;;;;;0.28;0.28;;;9.60;99.90;;;;;;4380739;32;20797;-74
2023/04/26 10:08:35;;;;;;;3.12;1.02;;;9.80;99.90;;;;;;4380037;32;20141;-74
2023/04/26 10:11:03;;;;;;;0.40;0.40;;;9.70;99.90;;;;;;4376178;32;20098;-75
2023/04/26 10:13:31;;;;;;;0.30;0.30;;;9.60;99.90;;;;;;4385716;32;20092;-75
2023/04/26 10:15:58;;;;;;;0.40;0.40;;;9.70;99.90;;;;;;4385157;32;20563;-75
2023/04/26 10:18:25;;;;;;;0.60;0.60;;;10.00;99.90;;;;;;4376559;32;20368;-76
2023/04/26 10:20:54;;;;;;;2.65;1.80;;;10.10;99.90;;;;;;4374632;32;20667;-74
2023/04/26 10:23:24;;;;;;;0.50;0.50;;;10.20;99.90;;;;;;4383695;32;20251;-76
2023/04/26 10:25:50;;;;;;;1.85;1.15;;;10.30;99.90;;;;;;4372438;32;20122;-77
2023/04/26 10:28:17;;;;;;;0.30;0.30;;;10.30;99.90;;;;;;4388033;32;20121;-78
2023/04/26 10:31:00;;;;;;;7.32;0.50;;;10.40;99.90;;;;;;4387947;32;20101;-78
2023/04/26 10:33:26;;;;;;;0.57;0.57;;;10.30;99.90;;;;;;4374570;32;20094;-78
2023/04/26 10:36:01;;;;;;;0.32;0.32;;;10.40;99.90;;;;;;4389060;32;20143;-78
2023/04/26 10:38:27;;;;;;;0.40;0.40;;;10.60;99.90;;;;;;4391585;32;20148;-80
2023/04/26 10:40:52;;;;;;;0.40;0.40;;;10.50;99.90;;;;;;4394431;32;20699;-75
2023/04/26 10:43:27;;;;;;;3.47;0.80;;;10.60;99.90;;;;;;4396996;32;20066;-76
2023/04/26 10:45:53;;;;;;;0.60;0.60;;;10.60;99.90;;;;;;4395636;32;20780;-75
2023/04/26 10:48:27;;;;;;;1.65;1.55;;;10.30;99.90;;;;;;4380585;32;20475;-75
2023/04/26 10:51:04;;;;;;;0.37;0.37;;;10.50;99.90;;;;;;4378600;32;20233;-74
2023/04/26 10:53:31;;;;;;;3.83;1.15;;;10.50;99.90;;;;;;4377899;32;20096;-74
2023/04/26 10:55:57;;;;;;;0.30;0.30;;;10.30;99.90;;;;;;4377565;32;20980;-74
2023/04/26 10:58:31;;;;;;;0.75;0.73;;;10.30;99.90;;;;;;4377744;32;20090;-74
2023/04/26 11:01:17;;;;;;;1.10;0.70;;;10.20;99.90;;;;;;4375912;32;20102;-75
2023/04/26 11:04:08;;;;;;;0.95;0.88;;;9.90;99.90;;;;;;4363176;32;20089;-74
2023/04/26 11:06:54;;;;;;;0.40;0.40;;;9.80;99.90;;;;;;4365235;32;20488;-73
2023/04/26 11:09:39;;;;;;;0.40;0.40;;;9.70;99.90;;;;;;4362451;32;20163;-73
2023/04/26 11:12:10;;;;;;;1.25;0.93;;;9.50;99.90;;;;;;4361789;32;20593;-73
2023/04/26 11:14:35;;;;;;;0.50;0.50;;;9.50;99.90;;;;;;4375865;32;20093;-75
2023/04/26 11:17:04;;;;;;;2.65;0.50;;;9.60;99.90;;;;;;4377015;32;20102;-75
2023/04/26 11:19:30;;;;;;;1.08;0.52;;;9.60;99.90;;;;;;4368271;32;20097;-74
2023/04/26 11:21:57;;;;;;;3.15;0.88;;;9.60;99.90;;;;;;4377780;32;20102;-74
2023/04/26 11:24:25;;;;;;;1.02;0.95;;;9.70;99.90;;;;;;4382710;32;20105;-73
2023/04/26 11:26:52;;;;;;;0.50;0.50;;;10.00;99.90;;;;;;4379486;32;20569;-75
2023/04/26 11:29:18;;;;;;;0.60;0.60;;;10.80;99.90;;;;;;4374953;32;21099;-72
2023/04/26 11:31:51;;;;;;;0.68;0.68;;;11.60;99.90;;;;;;4367871;32;20216;-72
2023/04/26 11:34:21;;;;;;;1.55;1.37;;;11.70;99.90;;;;;;4374128;32;20186;-71
2023/04/26 11:36:47;;;;;;;0.43;0.43;;;11.40;99.90;;;;;;4371687;32;20328;-74
2023/04/26 11:39:13;;;;;;;0.30;0.30;;;10.90;99.90;;;;;;4374389;32;20538;-74
2023/04/26 11:41:38;;;;;;;0.30;0.30;;;10.60;99.90;;;;;;4388514;32;20102;-73
2023/04/26 11:44:04;;;;;;;1.20;1.10;;;10.30;99.90;;;;;;4372799;32;153452;-72
2023/04/26 11:46:29;;;;;;;0.30;0.30;;;10.10;99.90;;;;;;4383785;32;20105;-74
2023/04/26 11:48:56;;;;;;;0.55;0.55;;;9.90;99.90;;;;;;4382697;32;20613;-73
2023/04/26 11:51:22;;;;;;;1.10;1.00;;;9.90;99.90;;;;;;4386031;32;20100;-73
2023/04/26 11:53:50;;;;;;;2.37;0.60;;;9.90;99.90;;;;;;4392669;32;20077;-73
2023/04/26 11:56:18;;;;;;;2.10;1.05;;;9.90;99.90;;;;;;4382761;32;20166;-73
2023/04/26 11:58:48;;;;;;;0.85;0.85;;;9.80;99.90;;;;;;4373764;32;20102;-74
2023/04/26 12:01:29;;;;;;;0.50;0.50;;;9.70;99.90;;;;;;4377571;32;20113;-74
2023/04/26 12:03:57;;;;;;;19.92;1.02;;;9.90;99.90;;;;;;4384836;32;20113;-72
2023/04/26 12:06:40;;;;;;;2.55;1.40;;;9.90;99.90;;;;;;4376902;32;20102;-72
2023/04/26 12:09:07;;;;;;;0.90;0.90;;;9.90;99.90;;;;;;4382171;32;20196;-72
2023/04/26 12:11:33;;;;;;;0.30;0.30;;;10.10;99.90;;;;;;4384318;32;20093;-73
2023/04/26 12:13:59;;;;;;;0.40;0.40;;;10.70;99.90;;;;;;4373308;32;21574;-71
2023/04/26 12:16:24;;;;;;;0.95;0.73;;;11.20;99.90;;;;;;4366929;32;20181;-72
2023/04/26 12:18:51;;;;;;;0.45;0.45;;;11.30;99.90;;;;;;4373651;32;20296;-70
2023/04/26 12:21:17;;;;;;;0.30;0.30;;;11.10;99.90;;;;;;4375708;32;20097;-70
2023/04/26 12:23:46;;;;;;;0.30;0.30;;;10.90;99.90;;;;;;4383653;32;20106;-71
2023/04/26 12:26:12;;;;;;;1.10;0.80;;;10.60;99.90;;;;;;4378263;32;20620;-71
2023/04/26 12:28:38;;;;;;;0.50;0.50;;;10.50;99.90;;;;;;4384010;32;20232;-71
2023/04/26 12:31:03;;;;;;;0.62;0.62;;;10.10;99.90;;;;;;4380504;32;20088;-70
2023/04/26 12:33:29;;;;;;;3.72;0.85;;;10.10;99.90;;;;;;4383548;32;20119;-71
2023/04/26 12:35:56;;;;;;;0.50;0.50;;;9.80;99.90;;;;;;4387575;32;20097;-71
2023/04/26 12:38:22;;;;;;;3.92;1.75;;;9.80;99.90;;;;;;4388398;32;20086;-73
2023/04/26 12:40:47;;;;;;;29.05;0.77;;;10.00;98.90;;;;;;4387706;32;20097;-74
2023/04/26 12:43:15;;;;;;;6.97;1.90;;;10.10;99.30;;;;;;4391640;32;20596;-75
2023/04/26 12:45:40;;;;;;;0.37;0.37;;;10.40;98.40;;;;;;4395710;32;20734;-73
2023/04/26 12:48:06;;;;;;;0.28;0.28;;;10.90;98.50;;;;;;4381244;32;20133;-75
2023/04/26 12:50:32;;;;;;;1.45;0.73;;;11.70;97.60;;;;;;4384152;32;20647;-74
2023/04/26 12:52:57;;;;;;;0.45;0.45;;;13.00;96.60;;;;;;4383833;32;20089;-74